createdAt,value
2017-08-25T00:00:39.990Z,-4.09
2017-08-25T00:01:41.394Z,-4.09
2017-08-25T00:02:41.003Z,-4.09
2017-08-25T00:03:41.126Z,-4.09
2017-08-25T00:04:41.422Z,-4.09
2017-08-25T00:05:42.269Z,-4.09
2017-08-25T00:06:43.231Z,-4.09
2017-08-25T00:07:37.456Z,-4.09
2017-08-25T00:08:38.275Z,-4.09
2017-08-25T00:09:38.274Z,-4.09
2017-08-25T00:10:33.329Z,-4.10
2017-08-25T00:11:33.729Z,-4.10
2017-08-25T00:12:28.115Z,-4.10
2017-08-25T00:13:27.521Z,-4.10
2017-08-25T00:14:22.475Z,-4.10
2017-08-25T00:15:17.932Z,-4.10
2017-08-25T00:16:17.993Z,-4.10
2017-08-25T00:17:12.545Z,-4.10
2017-08-25T00:18:07.938Z,-4.10
2017-08-25T00:19:08.658Z,-4.10
2017-08-25T00:20:08.655Z,-4.10
2017-08-25T00:21:08.866Z,-4.10
2017-08-25T00:22:03.827Z,-4.10
2017-08-25T00:22:57.819Z,-4.10
2017-08-25T00:23:59.297Z,-4.10
2017-08-25T00:25:00.236Z,-4.10
2017-08-25T00:25:55.150Z,-4.10
2017-08-25T00:26:55.200Z,-4.10
2017-08-25T00:27:54.976Z,-4.10
2017-08-25T00:28:48.947Z,-4.10
2017-08-25T00:29:49.297Z,-4.10
2017-08-25T00:30:49.428Z,-4.10
2017-08-25T00:31:44.376Z,-4.10
2017-08-25T00:32:38.466Z,-4.10
2017-08-25T00:33:38.451Z,-4.10
2017-08-25T00:34:33.476Z,-4.10
2017-08-25T00:35:28.531Z,-4.10
2017-08-25T00:36:28.564Z,-4.10
2017-08-25T00:37:23.642Z,-4.10
2017-08-25T00:38:18.633Z,-4.10
2017-08-25T00:39:18.680Z,-4.10
2017-08-25T00:40:13.784Z,-4.10
2017-08-25T00:41:13.995Z,-4.10
2017-08-25T00:42:14.814Z,-4.10
2017-08-25T00:43:08.947Z,-4.10
2017-08-25T00:44:09.893Z,-4.10
2017-08-25T00:45:09.927Z,-4.10
2017-08-25T00:46:09.967Z,-4.10
2017-08-25T00:47:05.434Z,-4.10
2017-08-25T00:47:59.043Z,-4.10
2017-08-25T00:48:59.069Z,-4.10
2017-08-25T00:49:54.106Z,-4.10
2017-08-25T00:50:54.120Z,-4.10
2017-08-25T00:51:48.259Z,-4.10
2017-08-25T00:52:48.533Z,-4.10
2017-08-25T00:53:43.203Z,-4.10
2017-08-25T00:54:38.275Z,-4.10
2017-08-25T00:55:38.334Z,-4.10
2017-08-25T00:56:33.308Z,-4.10
2017-08-25T00:57:28.453Z,-4.10
2017-08-25T00:58:29.511Z,-4.10
2017-08-25T00:59:29.432Z,-4.10
2017-08-25T01:00:35.553Z,-4.10
2017-08-25T01:01:30.631Z,-4.11
2017-08-25T01:02:25.535Z,-4.10
2017-08-25T01:03:26.626Z,-4.11
2017-08-25T01:04:26.793Z,-4.11
2017-08-25T01:05:26.770Z,-4.10
2017-08-25T01:06:21.734Z,-4.11
2017-08-25T01:07:15.663Z,-4.10
2017-08-25T01:08:15.779Z,-4.10
2017-08-25T01:09:10.864Z,-4.10
2017-08-25T01:10:10.879Z,-4.10
2017-08-25T01:11:04.958Z,-4.10
2017-08-25T01:12:04.877Z,-4.10
2017-08-25T01:12:59.934Z,-4.10
2017-08-25T01:13:55.017Z,-4.10
2017-08-25T01:14:54.986Z,-4.10
2017-08-25T01:15:50.117Z,-4.10
2017-08-25T01:16:50.185Z,-4.10
2017-08-25T01:17:50.193Z,-4.10
2017-08-25T01:18:50.164Z,-4.10
2017-08-25T01:19:44.225Z,-4.10
2017-08-25T01:20:44.290Z,-4.10
2017-08-25T01:21:39.340Z,-4.11
2017-08-25T01:22:39.336Z,-4.10
2017-08-25T01:23:39.337Z,-4.10
2017-08-25T01:24:39.385Z,-4.10
2017-08-25T01:25:33.354Z,-4.10
2017-08-25T01:26:33.441Z,-4.11
2017-08-25T01:27:28.421Z,-4.11
2017-08-25T01:28:23.505Z,-4.11
2017-08-25T01:29:24.632Z,-4.11
2017-08-25T01:30:24.613Z,-4.11
2017-08-25T01:31:24.647Z,-4.11
2017-08-25T01:32:19.819Z,-4.11
2017-08-25T01:33:19.693Z,-4.11
2017-08-25T01:34:19.834Z,-4.11
2017-08-25T01:35:13.702Z,-4.11
2017-08-25T01:36:13.790Z,-4.11
2017-08-25T01:37:08.787Z,-4.11
2017-08-25T01:38:08.939Z,-4.11
2017-08-25T01:39:03.002Z,-4.11
2017-08-25T01:40:02.975Z,-4.11
2017-08-25T01:40:58.074Z,-4.11
2017-08-25T01:41:53.035Z,-4.11
2017-08-25T01:42:53.069Z,-4.11
2017-08-25T01:43:48.106Z,-4.11
2017-08-25T01:44:43.183Z,-4.11
2017-08-25T01:45:44.254Z,-4.11
2017-08-25T01:46:44.201Z,-4.11
2017-08-25T01:47:44.198Z,-4.11
2017-08-25T01:48:39.317Z,-4.11
2017-08-25T01:49:33.337Z,-4.11
2017-08-25T01:50:34.342Z,-4.11
2017-08-25T01:51:34.426Z,-4.11
2017-08-25T01:52:34.359Z,-4.11
2017-08-25T01:53:29.488Z,-4.11
2017-08-25T01:54:23.446Z,-4.11
2017-08-25T01:55:23.504Z,-4.11
2017-08-25T01:56:18.517Z,-4.11
2017-08-25T01:57:13.646Z,-4.11
2017-08-25T01:58:14.599Z,-4.11
2017-08-25T01:59:14.594Z,-4.11
2017-08-25T02:00:14.793Z,-4.11
2017-08-25T02:01:09.717Z,-4.11
2017-08-25T02:02:03.917Z,-4.11
2017-08-25T02:03:04.832Z,-4.11
2017-08-25T02:04:04.848Z,-4.11
2017-08-25T02:05:04.904Z,-4.11
2017-08-25T02:05:59.923Z,-4.11
2017-08-25T02:06:53.961Z,-4.11
2017-08-25T02:07:54.062Z,-4.11
2017-08-25T02:08:49.049Z,-4.11
2017-08-25T02:09:44.100Z,-4.11
2017-08-25T02:10:45.186Z,-4.11
2017-08-25T02:11:45.128Z,-4.11
2017-08-25T02:12:45.248Z,-4.11
2017-08-25T02:13:40.337Z,-4.11
2017-08-25T02:14:34.199Z,-4.11
2017-08-25T02:15:34.297Z,-4.11
2017-08-25T02:16:29.297Z,-4.11
2017-08-25T02:17:29.267Z,-4.11
2017-08-25T02:18:29.348Z,-4.11
2017-08-25T02:19:29.386Z,-4.11
2017-08-25T02:20:23.383Z,-4.11
2017-08-25T02:21:23.484Z,-4.11
2017-08-25T02:22:18.621Z,-4.11
2017-08-25T02:23:24.462Z,-4.11
2017-08-25T02:24:19.585Z,-4.11
2017-08-25T02:25:13.648Z,-4.11
2017-08-25T02:26:14.748Z,-4.11
2017-08-25T02:27:09.691Z,-4.11
2017-08-25T02:28:09.769Z,-4.11
2017-08-25T02:29:09.886Z,-4.11
2017-08-25T02:30:03.729Z,-4.11
2017-08-25T02:31:03.889Z,-4.11
2017-08-25T02:32:03.868Z,-4.11
2017-08-25T02:32:58.966Z,-4.11
2017-08-25T02:33:52.955Z,-4.11
2017-08-25T02:34:52.973Z,-4.11
2017-08-25T02:35:47.986Z,-4.11
2017-08-25T02:36:43.081Z,-4.11
2017-08-25T02:37:43.072Z,-4.11
2017-08-25T02:38:38.110Z,-4.11
2017-08-25T02:39:33.182Z,-4.11
2017-08-25T02:40:33.118Z,-4.11
2017-08-25T02:41:28.169Z,-4.11
2017-08-25T02:42:23.325Z,-4.11
2017-08-25T02:43:29.341Z,-4.11
2017-08-25T02:44:23.300Z,-4.11
2017-08-25T02:45:23.354Z,-4.11
2017-08-25T02:46:18.378Z,-4.12
2017-08-25T02:47:18.414Z,-4.11
2017-08-25T02:48:12.406Z,-4.11
2017-08-25T02:49:12.511Z,-4.11
2017-08-25T02:50:07.469Z,-4.12
2017-08-25T02:51:02.573Z,-4.12
2017-08-25T02:52:02.518Z,-4.11
2017-08-25T02:52:57.593Z,-4.11
2017-08-25T02:53:52.721Z,-4.11
2017-08-25T02:54:52.673Z,-4.11
2017-08-25T02:55:47.681Z,-4.11
2017-08-25T02:56:42.765Z,-4.11
2017-08-25T02:57:43.840Z,-4.11
2017-08-25T02:58:43.763Z,-4.11
2017-08-25T02:59:43.879Z,-4.11
2017-08-25T03:00:38.907Z,-4.11
2017-08-25T03:01:33.119Z,-4.12
2017-08-25T03:02:32.960Z,-4.11
2017-08-25T03:03:27.994Z,-4.11
2017-08-25T03:04:27.978Z,-4.11
2017-08-25T03:05:22.049Z,-4.11
2017-08-25T03:06:23.079Z,-4.11
2017-08-25T03:07:29.106Z,-4.11
2017-08-25T03:08:23.123Z,-4.11
2017-08-25T03:09:23.084Z,-4.11
2017-08-25T03:10:23.145Z,-4.11
2017-08-25T03:11:18.187Z,-4.11
2017-08-25T03:12:12.311Z,-4.11
2017-08-25T03:13:12.378Z,-4.11
2017-08-25T03:14:07.406Z,-4.12
2017-08-25T03:15:07.471Z,-4.11
2017-08-25T03:16:07.416Z,-4.12
2017-08-25T03:17:07.468Z,-4.12
2017-08-25T03:18:01.539Z,-4.12
2017-08-25T03:19:01.508Z,-4.12
2017-08-25T03:19:56.544Z,-4.12
2017-08-25T03:20:51.576Z,-4.12
2017-08-25T03:21:52.680Z,-4.12
2017-08-25T03:22:52.714Z,-4.12
2017-08-25T03:23:52.812Z,-4.12
2017-08-25T03:24:47.672Z,-4.12
2017-08-25T03:25:41.779Z,-4.12
2017-08-25T03:26:41.903Z,-4.12
2017-08-25T03:27:36.891Z,-4.12
2017-08-25T03:28:36.931Z,-4.12
2017-08-25T03:29:30.943Z,-4.12
2017-08-25T03:30:30.870Z,-4.12
2017-08-25T03:31:26.009Z,-4.12
2017-08-25T03:32:20.962Z,-4.12
2017-08-25T03:33:21.999Z,-4.12
2017-08-25T03:34:22.067Z,-4.12
2017-08-25T03:35:22.029Z,-4.12
2017-08-25T03:36:22.166Z,-4.12
2017-08-25T03:37:22.199Z,-4.12
2017-08-25T03:38:17.236Z,-4.12
2017-08-25T03:39:11.258Z,-4.12
2017-08-25T03:40:11.217Z,-4.12
2017-08-25T03:41:06.292Z,-4.12
2017-08-25T03:42:06.356Z,-4.12
2017-08-25T03:43:06.404Z,-4.12
2017-08-25T03:44:06.343Z,-4.12
2017-08-25T03:45:00.442Z,-4.12
2017-08-25T03:46:00.375Z,-4.12
2017-08-25T03:46:55.341Z,-4.12
2017-08-25T03:47:50.487Z,-4.12
2017-08-25T03:48:50.491Z,-4.12
2017-08-25T03:49:45.606Z,-4.12
2017-08-25T03:50:40.578Z,-4.12
2017-08-25T03:51:40.686Z,-4.12
2017-08-25T03:52:35.710Z,-4.12
2017-08-25T03:53:30.761Z,-4.12
2017-08-25T03:54:31.801Z,-4.12
2017-08-25T03:55:31.760Z,-4.12
2017-08-25T03:56:31.881Z,-4.12
2017-08-25T03:57:26.850Z,-4.12
2017-08-25T03:58:20.879Z,-4.12
2017-08-25T03:59:20.825Z,-4.12
2017-08-25T04:00:16.016Z,-4.12
2017-08-25T04:01:22.000Z,-4.12
2017-08-25T04:02:17.122Z,-4.12
2017-08-25T04:03:11.162Z,-4.12
2017-08-25T04:04:11.219Z,-4.12
2017-08-25T04:05:11.138Z,-4.12
2017-08-25T04:06:12.111Z,-4.12
2017-08-25T04:07:07.182Z,-4.12
2017-08-25T04:08:07.232Z,-4.12
2017-08-25T04:09:02.304Z,-4.12
2017-08-25T04:09:57.382Z,-4.12
2017-08-25T04:10:57.359Z,-4.12
2017-08-25T04:11:57.385Z,-4.12
2017-08-25T04:12:58.495Z,-4.12
2017-08-25T04:13:58.618Z,-4.12
2017-08-25T04:14:53.458Z,-4.12
2017-08-25T04:15:53.452Z,-4.12
2017-08-25T04:16:47.625Z,-4.12
2017-08-25T04:17:47.536Z,-4.12
2017-08-25T04:18:42.729Z,-4.12
2017-08-25T04:19:37.728Z,-4.12
2017-08-25T04:20:31.664Z,-4.12
2017-08-25T04:21:31.698Z,-4.12
2017-08-25T04:22:26.674Z,-4.12
2017-08-25T04:23:21.711Z,-4.12
2017-08-25T04:24:21.818Z,-4.12
2017-08-25T04:25:16.787Z,-4.12
2017-08-25T04:26:11.794Z,-4.12
2017-08-25T04:27:06.036Z,-4.12
2017-08-25T04:28:05.994Z,-4.12
2017-08-25T04:29:00.966Z,-4.12
2017-08-25T04:30:00.948Z,-4.12
2017-08-25T04:31:01.165Z,-4.12
2017-08-25T04:32:01.027Z,-4.12
2017-08-25T04:32:54.975Z,-4.12
2017-08-25T04:33:55.136Z,-4.12
2017-08-25T04:34:50.004Z,-4.12
2017-08-25T04:35:45.081Z,-4.12
2017-08-25T04:36:39.341Z,-4.12
2017-08-25T04:37:39.383Z,-4.12
2017-08-25T04:38:34.400Z,-4.12
2017-08-25T04:39:29.371Z,-4.12
2017-08-25T04:40:29.394Z,-4.12
2017-08-25T04:41:24.493Z,-4.12
2017-08-25T04:42:19.507Z,-4.12
2017-08-25T04:43:13.515Z,-4.12
2017-08-25T04:44:19.501Z,-4.12
2017-08-25T04:45:13.598Z,-4.12
2017-08-25T04:46:14.534Z,-4.12
2017-08-25T04:47:09.593Z,-4.12
2017-08-25T04:48:09.738Z,-4.12
2017-08-25T04:49:09.757Z,-4.12
2017-08-25T04:50:09.753Z,-4.12
2017-08-25T04:51:15.735Z,-4.12
2017-08-25T04:52:10.800Z,-4.12
2017-08-25T04:53:04.855Z,-4.12
2017-08-25T04:54:04.946Z,-4.12
2017-08-25T04:54:59.885Z,-4.12
2017-08-25T04:55:54.933Z,-4.12
2017-08-25T04:56:56.004Z,-4.12
2017-08-25T04:57:56.022Z,-4.12
2017-08-25T04:58:51.031Z,-4.12
2017-08-25T04:59:46.116Z,-4.12
2017-08-25T05:00:47.224Z,-4.11
2017-08-25T05:01:47.151Z,-4.11
2017-08-25T05:02:42.245Z,-4.11
2017-08-25T05:03:37.301Z,-4.11
2017-08-25T05:04:37.304Z,-4.11
2017-08-25T05:05:32.356Z,-4.11
2017-08-25T05:06:27.360Z,-4.11
2017-08-25T05:07:21.399Z,-4.11
2017-08-25T05:08:21.365Z,-4.11
2017-08-25T05:09:16.474Z,-4.11
2017-08-25T05:10:16.478Z,-4.11
2017-08-25T05:11:17.471Z,-4.11
2017-08-25T05:12:11.524Z,-4.11
2017-08-25T05:13:11.526Z,-4.11
2017-08-25T05:14:06.658Z,-4.11
2017-08-25T05:15:01.709Z,-4.11
2017-08-25T05:15:55.753Z,-4.11
2017-08-25T05:16:55.738Z,-4.11
2017-08-25T05:17:50.789Z,-4.11
2017-08-25T05:18:45.811Z,-4.11
2017-08-25T05:19:45.804Z,-4.11
2017-08-25T05:20:40.910Z,-4.11
2017-08-25T05:21:40.861Z,-4.11
2017-08-25T05:22:42.029Z,-4.11
2017-08-25T05:23:43.042Z,-4.11
2017-08-25T05:24:42.958Z,-4.11
2017-08-25T05:25:42.973Z,-4.11
2017-08-25T05:26:37.132Z,-4.11
2017-08-25T05:27:37.129Z,-4.11
2017-08-25T05:28:32.112Z,-4.11
2017-08-25T05:29:27.246Z,-4.11
2017-08-25T05:30:21.283Z,-4.11
2017-08-25T05:31:21.323Z,-4.10
2017-08-25T05:32:16.279Z,-4.10
2017-08-25T05:33:11.303Z,-4.10
2017-08-25T05:34:11.427Z,-4.10
2017-08-25T05:35:06.383Z,-4.10
2017-08-25T05:36:01.505Z,-4.10
2017-08-25T05:36:55.548Z,-4.09
2017-08-25T05:37:56.530Z,-4.09
2017-08-25T05:38:56.505Z,-4.10
2017-08-25T05:39:56.654Z,-4.10
2017-08-25T05:40:51.624Z,-4.09
2017-08-25T05:41:51.694Z,-4.09
2017-08-25T05:42:51.676Z,-4.09
2017-08-25T05:43:51.730Z,-4.09
2017-08-25T05:44:57.897Z,-4.09
2017-08-25T05:45:52.889Z,-4.09
2017-08-25T05:46:52.865Z,-4.09
2017-08-25T05:47:53.026Z,-4.09
2017-08-25T05:48:46.875Z,-4.08
2017-08-25T05:49:46.974Z,-4.09
2017-08-25T05:50:41.982Z,-4.09
2017-08-25T05:51:37.015Z,-4.09
2017-08-25T05:52:31.164Z,-4.09
2017-08-25T05:53:31.151Z,-4.09
2017-08-25T05:54:26.208Z,-4.09
2017-08-25T05:55:26.300Z,-4.09
2017-08-25T05:56:26.342Z,-4.09
2017-08-25T05:57:26.375Z,-4.09
2017-08-25T05:58:20.375Z,-4.09
2017-08-25T05:59:21.375Z,-4.09
2017-08-25T06:00:21.524Z,-4.09
2017-08-25T06:01:16.531Z,-4.09
2017-08-25T06:02:11.530Z,-4.09
2017-08-25T06:03:11.547Z,-4.09
2017-08-25T06:04:06.666Z,-4.09
2017-08-25T06:05:01.643Z,-4.09
2017-08-25T06:05:55.770Z,-4.09
2017-08-25T06:06:55.721Z,-4.09
2017-08-25T06:07:50.718Z,-4.09
2017-08-25T06:08:45.732Z,-4.09
2017-08-25T06:09:46.776Z,-4.09
2017-08-25T06:10:46.854Z,-4.08
2017-08-25T06:11:41.577Z,-4.08
2017-08-25T06:12:41.568Z,-4.08
2017-08-25T06:13:42.726Z,-4.08
2017-08-25T06:14:42.723Z,-4.07
2017-08-25T06:15:42.692Z,-4.07
2017-08-25T06:16:43.027Z,-4.07
2017-08-25T06:17:42.913Z,-4.07
2017-08-25T06:18:42.923Z,-4.07
2017-08-25T06:19:42.945Z,-4.07
2017-08-25T06:20:42.962Z,-4.06
2017-08-25T06:21:42.957Z,-4.06
2017-08-25T06:22:43.314Z,-4.05
2017-08-25T06:23:43.398Z,-4.05
2017-08-25T06:24:43.419Z,-4.05
2017-08-25T06:25:43.458Z,-4.04
2017-08-25T06:26:43.521Z,-4.04
2017-08-25T06:27:43.604Z,-4.04
2017-08-25T06:28:43.607Z,-4.04
2017-08-25T06:29:43.781Z,-4.04
2017-08-25T06:30:37.649Z,-4.05
2017-08-25T06:31:31.670Z,-4.06
2017-08-25T06:32:26.790Z,-4.06
2017-08-25T06:33:15.797Z,-4.07
2017-08-25T06:34:03.832Z,-4.07
2017-08-25T06:34:52.953Z,-4.07
2017-08-25T06:35:40.946Z,-4.08
2017-08-25T06:36:29.053Z,-4.08
2017-08-25T06:37:18.030Z,-4.08
2017-08-25T06:38:06.033Z,-4.08
2017-08-25T06:38:54.264Z,-4.08
2017-08-25T06:39:42.249Z,-4.08
2017-08-25T06:40:31.306Z,-4.08
2017-08-25T06:41:19.414Z,-4.08
2017-08-25T06:42:07.288Z,-4.07
2017-08-25T06:42:56.384Z,-4.07
2017-08-25T06:43:44.485Z,-4.07
2017-08-25T06:44:38.528Z,-4.07
2017-08-25T06:45:27.624Z,-4.08
2017-08-25T06:46:21.598Z,-4.08
2017-08-25T06:47:16.690Z,-4.07
2017-08-25T06:48:11.670Z,-4.08
2017-08-25T06:49:00.705Z,-4.08
2017-08-25T06:49:48.781Z,-4.09
2017-08-25T06:50:42.925Z,-4.09
2017-08-25T06:51:32.186Z,-4.09
2017-08-25T06:52:25.965Z,-4.09
2017-08-25T06:53:19.995Z,-4.09
2017-08-25T06:54:14.143Z,-4.09
2017-08-25T06:55:15.052Z,-4.09
2017-08-25T06:56:16.060Z,-4.09
2017-08-25T06:57:10.403Z,-4.09
2017-08-25T06:57:58.263Z,-4.09
2017-08-25T06:58:58.236Z,-4.08
2017-08-25T06:59:53.293Z,-4.08
2017-08-25T07:00:48.345Z,-4.08
2017-08-25T07:01:36.450Z,-4.09
2017-08-25T07:02:32.147Z,-4.09
2017-08-25T07:03:20.474Z,-4.09
2017-08-25T07:04:14.581Z,-4.09
2017-08-25T07:05:09.602Z,-4.09
2017-08-25T07:06:03.754Z,-4.09
2017-08-25T07:06:57.759Z,-4.09
2017-08-25T07:07:57.817Z,-4.09
2017-08-25T07:08:52.780Z,-4.09
2017-08-25T07:09:40.810Z,-4.08
2017-08-25T07:10:34.993Z,-4.08
2017-08-25T07:11:22.995Z,-4.07
2017-08-25T07:12:11.035Z,-4.06
2017-08-25T07:13:12.115Z,-4.05
2017-08-25T07:14:06.126Z,-4.04
2017-08-25T07:15:00.189Z,-4.04
2017-08-25T07:15:54.234Z,-4.03
2017-08-25T07:16:49.248Z,-4.03
2017-08-25T07:17:37.308Z,-4.03
2017-08-25T07:18:26.336Z,-4.03
2017-08-25T07:19:14.447Z,-4.03
2017-08-25T07:20:08.467Z,-4.04
2017-08-25T07:21:02.453Z,-4.04
2017-08-25T07:21:56.574Z,-4.05
2017-08-25T07:22:51.647Z,-4.05
2017-08-25T07:23:51.685Z,-4.06
2017-08-25T07:24:45.843Z,-4.07
2017-08-25T07:25:39.804Z,-4.07
2017-08-25T07:26:39.766Z,-4.07
2017-08-25T07:27:34.877Z,-4.08
2017-08-25T07:28:29.862Z,-4.09
2017-08-25T07:29:17.940Z,-4.09
2017-08-25T07:30:18.005Z,-4.08
2017-08-25T07:31:07.120Z,-4.08
2017-08-25T07:32:01.003Z,-4.07
2017-08-25T07:32:50.094Z,-4.07
2017-08-25T07:33:50.204Z,-4.06
2017-08-25T07:34:44.274Z,-4.05
2017-08-25T07:35:33.320Z,-4.05
2017-08-25T07:36:27.373Z,-4.05
2017-08-25T07:37:16.407Z,-4.05
2017-08-25T07:38:04.471Z,-4.04
2017-08-25T07:38:53.514Z,-4.04
2017-08-25T07:39:53.604Z,-4.03
2017-08-25T07:40:48.668Z,-4.03
2017-08-25T07:41:43.777Z,-4.03
2017-08-25T07:42:43.719Z,-4.02
2017-08-25T07:43:31.746Z,-4.02
2017-08-25T07:44:25.850Z,-4.01
2017-08-25T07:45:13.952Z,-4.01
2017-08-25T07:46:01.898Z,-4.01
2017-08-25T07:47:02.004Z,4.52
2017-08-25T07:47:56.009Z,9.36
2017-08-25T07:48:56.029Z,-4.00
2017-08-25T07:49:44.163Z,11.54
2017-08-25T07:50:33.388Z,1.70
2017-08-25T07:51:28.288Z,33.50
2017-08-25T07:52:28.360Z,29.56
2017-08-25T07:53:23.378Z,38.85
2017-08-25T07:54:12.419Z,39.06
2017-08-25T07:55:06.423Z,35.86
2017-08-25T07:55:54.556Z,30.28
2017-08-25T07:56:42.605Z,15.06
2017-08-25T07:57:36.673Z,15.25
2017-08-25T07:58:30.758Z,28.76
2017-08-25T07:59:24.843Z,30.32
2017-08-25T08:00:13.888Z,32.85
2017-08-25T08:01:02.919Z,29.08
2017-08-25T08:01:51.904Z,16.43
2017-08-25T08:02:52.025Z,22.95
2017-08-25T08:03:40.046Z,25.28
2017-08-25T08:04:35.120Z,16.81
2017-08-25T08:05:29.236Z,26.46
2017-08-25T08:06:18.756Z,23.55
2017-08-25T08:07:13.327Z,37.55
2017-08-25T08:08:07.368Z,24.33
2017-08-25T08:09:07.429Z,38.18
2017-08-25T08:10:02.507Z,21.86
2017-08-25T08:10:56.503Z,39.47
2017-08-25T08:11:51.543Z,42.41
2017-08-25T08:12:45.623Z,39.72
2017-08-25T08:13:39.729Z,38.06
2017-08-25T08:14:28.749Z,37.36
2017-08-25T08:15:22.791Z,45.11
2017-08-25T08:16:10.823Z,38.78
2017-08-25T08:17:04.902Z,44.99
2017-08-25T08:17:53.980Z,39.28
2017-08-25T08:18:48.100Z,43.17
2017-08-25T08:19:43.129Z,41.37
2017-08-25T08:20:31.269Z,37.55
2017-08-25T08:21:31.258Z,42.41
2017-08-25T08:22:20.286Z,36.32
2017-08-25T08:23:08.344Z,38.70
2017-08-25T08:24:08.381Z,45.74
2017-08-25T08:25:02.523Z,45.25
2017-08-25T08:25:50.570Z,44.77
2017-08-25T08:26:44.582Z,38.30
2017-08-25T08:27:39.648Z,45.78
2017-08-25T08:28:28.601Z,47.76
2017-08-25T08:29:28.719Z,45.96
2017-08-25T08:30:22.820Z,41.35
2017-08-25T08:31:17.837Z,43.39
2017-08-25T08:32:11.913Z,44.89
2017-08-25T08:33:06.014Z,44.34
2017-08-25T08:34:01.100Z,44.81
2017-08-25T08:34:50.071Z,36.75
2017-08-25T08:35:50.156Z,29.08
2017-08-25T08:36:39.134Z,39.88
2017-08-25T08:37:33.280Z,44.95
2017-08-25T08:38:28.364Z,39.67
2017-08-25T08:39:29.361Z,32.15
2017-08-25T08:40:29.425Z,32.32
2017-08-25T08:41:29.509Z,28.08
2017-08-25T08:42:17.717Z,39.46
2017-08-25T08:43:06.647Z,43.54
2017-08-25T08:44:00.649Z,47.42
2017-08-25T08:45:00.707Z,45.86
2017-08-25T08:45:54.833Z,47.48
2017-08-25T08:46:48.853Z,46.20
2017-08-25T08:47:37.959Z,47.30
2017-08-25T08:48:32.043Z,46.84
2017-08-25T08:49:32.043Z,46.87
2017-08-25T08:50:26.173Z,47.57
2017-08-25T08:51:15.130Z,46.10
2017-08-25T08:52:04.223Z,46.00
2017-08-25T08:52:58.360Z,47.24
2017-08-25T08:53:52.382Z,47.42
2017-08-25T08:54:41.426Z,47.38
2017-08-25T08:55:35.463Z,47.43
2017-08-25T08:56:29.573Z,46.80
2017-08-25T08:57:23.496Z,46.19
2017-08-25T08:58:12.590Z,47.23
2017-08-25T08:59:01.727Z,46.83
2017-08-25T08:59:50.820Z,45.61
2017-08-25T09:00:44.744Z,44.13
2017-08-25T09:01:39.808Z,45.73
2017-08-25T09:02:33.965Z,45.78
2017-08-25T09:03:28.035Z,45.46
2017-08-25T09:04:22.158Z,43.75
2017-08-25T09:05:17.226Z,44.22
2017-08-25T09:06:12.285Z,45.75
2017-08-25T09:07:07.262Z,45.02
2017-08-25T09:08:01.312Z,43.55
2017-08-25T09:09:01.440Z,46.49
2017-08-25T09:09:49.504Z,46.79
2017-08-25T09:10:49.667Z,44.52
2017-08-25T09:11:44.557Z,44.35
2017-08-25T09:12:39.705Z,43.83
2017-08-25T09:13:33.737Z,45.43
2017-08-25T09:14:22.882Z,43.53
2017-08-25T09:15:16.903Z,45.03
2017-08-25T09:16:11.018Z,43.88
2017-08-25T09:17:11.033Z,45.72
2017-08-25T09:17:59.147Z,47.03
2017-08-25T09:18:59.272Z,45.20
2017-08-25T09:19:53.363Z,43.56
2017-08-25T09:20:47.344Z,44.09
2017-08-25T09:21:41.528Z,39.74
2017-08-25T09:22:35.515Z,42.42
2017-08-25T09:23:29.627Z,43.78
2017-08-25T09:24:23.700Z,43.65
2017-08-25T09:25:17.716Z,44.79
2017-08-25T09:26:12.729Z,44.13
2017-08-25T09:27:07.001Z,44.36
2017-08-25T09:28:01.975Z,46.35
2017-08-25T09:28:51.000Z,46.84
2017-08-25T09:29:46.008Z,44.91
2017-08-25T09:30:40.149Z,45.26
2017-08-25T09:31:35.156Z,46.68
2017-08-25T09:32:35.252Z,46.21
2017-08-25T09:33:30.249Z,45.93
2017-08-25T09:34:19.330Z,43.87
2017-08-25T09:35:08.432Z,45.68
2017-08-25T09:36:02.444Z,46.39
2017-08-25T09:36:51.557Z,45.21
2017-08-25T09:37:45.925Z,45.53
2017-08-25T09:38:45.741Z,45.62
2017-08-25T09:39:45.780Z,44.62
2017-08-25T09:40:46.817Z,46.03
2017-08-25T09:41:35.930Z,45.73
2017-08-25T09:42:30.092Z,45.17
2017-08-25T09:43:25.135Z,46.28
2017-08-25T09:44:26.261Z,43.71
2017-08-25T09:45:21.391Z,44.45
2017-08-25T09:46:16.382Z,46.00
2017-08-25T09:47:16.318Z,46.26
2017-08-25T09:48:10.397Z,47.70
2017-08-25T09:49:04.499Z,47.22
2017-08-25T09:50:05.555Z,47.82
2017-08-25T09:50:54.609Z,46.67
2017-08-25T09:51:48.766Z,47.31
2017-08-25T09:52:37.812Z,48.58
2017-08-25T09:53:26.846Z,47.14
2017-08-25T09:54:21.898Z,47.13
2017-08-25T09:55:17.008Z,48.29
2017-08-25T09:56:06.001Z,47.70
2017-08-25T09:57:06.079Z,47.82
2017-08-25T09:58:12.100Z,48.46
2017-08-25T09:59:12.174Z,47.48
2017-08-25T10:00:06.433Z,47.07
2017-08-25T10:01:06.321Z,45.46
2017-08-25T10:02:00.430Z,46.68
2017-08-25T10:02:54.422Z,48.09
2017-08-25T10:03:43.500Z,47.74
2017-08-25T10:04:31.548Z,47.53
2017-08-25T10:05:25.638Z,47.58
2017-08-25T10:06:19.656Z,47.86
2017-08-25T10:07:19.756Z,46.79
2017-08-25T10:08:14.846Z,47.90
2017-08-25T10:09:08.808Z,48.16
2017-08-25T10:10:03.938Z,48.94
2017-08-25T10:10:59.280Z,47.65
2017-08-25T10:11:53.045Z,47.93
2017-08-25T10:12:42.123Z,47.92
2017-08-25T10:13:42.129Z,48.66
2017-08-25T10:14:36.253Z,49.74
2017-08-25T10:15:25.253Z,49.52
2017-08-25T10:16:19.685Z,49.39
2017-08-25T10:17:14.431Z,48.70
2017-08-25T10:18:03.472Z,48.26
2017-08-25T10:18:57.547Z,48.32
2017-08-25T10:19:45.695Z,47.91
2017-08-25T10:20:40.690Z,47.39
2017-08-25T10:21:29.725Z,48.58
2017-08-25T10:22:17.786Z,48.19
2017-08-25T10:23:06.916Z,48.04
2017-08-25T10:24:00.953Z,47.26
2017-08-25T10:24:50.052Z,45.28
2017-08-25T10:25:44.121Z,45.62
2017-08-25T10:26:33.189Z,46.12
2017-08-25T10:27:27.308Z,44.86
2017-08-25T10:28:27.495Z,46.69
2017-08-25T10:29:16.367Z,42.44
2017-08-25T10:30:05.569Z,44.17
2017-08-25T10:31:05.583Z,46.62
2017-08-25T10:31:54.752Z,43.63
2017-08-25T10:32:49.716Z,43.72
2017-08-25T10:33:49.814Z,43.58
2017-08-25T10:34:43.854Z,45.12
2017-08-25T10:35:37.984Z,46.26
2017-08-25T10:36:33.055Z,44.36
2017-08-25T10:37:28.112Z,42.12
2017-08-25T10:38:16.232Z,44.99
2017-08-25T10:39:11.320Z,46.12
2017-08-25T10:40:00.371Z,43.76
2017-08-25T10:40:54.384Z,43.54
2017-08-25T10:41:48.522Z,41.86
2017-08-25T10:42:42.528Z,45.35
2017-08-25T10:43:37.632Z,43.11
2017-08-25T10:44:31.773Z,43.88
2017-08-25T10:45:25.852Z,40.88
2017-08-25T10:46:21.089Z,40.89
2017-08-25T10:47:14.946Z,40.65
2017-08-25T10:48:15.210Z,41.30
2017-08-25T10:49:15.206Z,37.66
2017-08-25T10:50:10.212Z,38.32
2017-08-25T10:51:10.372Z,40.13
2017-08-25T10:51:59.369Z,39.27
2017-08-25T10:52:54.428Z,39.26
2017-08-25T10:53:48.581Z,39.86
2017-08-25T10:54:37.724Z,39.05
2017-08-25T10:55:31.721Z,40.99
2017-08-25T10:56:25.774Z,40.96
2017-08-25T10:57:19.841Z,40.60
2017-08-25T10:58:19.942Z,44.03
2017-08-25T10:59:14.168Z,40.96
2017-08-25T11:00:09.089Z,43.40
2017-08-25T11:01:03.148Z,41.66
2017-08-25T11:01:58.214Z,43.80
2017-08-25T11:02:52.257Z,43.50
2017-08-25T11:03:47.312Z,45.06
2017-08-25T11:04:48.553Z,40.95
2017-08-25T11:05:42.474Z,42.39
2017-08-25T11:06:36.420Z,45.04
2017-08-25T11:07:30.520Z,43.25
2017-08-25T11:08:18.712Z,44.11
2017-08-25T11:09:13.706Z,41.15
2017-08-25T11:10:13.802Z,39.66
2017-08-25T11:11:01.841Z,40.78
2017-08-25T11:11:50.984Z,37.62
2017-08-25T11:12:39.047Z,38.72
2017-08-25T11:13:33.120Z,38.82
2017-08-25T11:14:22.251Z,37.35
2017-08-25T11:15:17.317Z,39.72
2017-08-25T11:16:06.478Z,39.89
2017-08-25T11:17:09.485Z,35.29
2017-08-25T11:18:01.550Z,35.97
2017-08-25T11:18:50.562Z,37.81
2017-08-25T11:19:38.642Z,37.78
2017-08-25T11:20:32.796Z,39.21
2017-08-25T11:21:26.864Z,40.19
2017-08-25T11:22:20.864Z,41.84
2017-08-25T11:23:14.953Z,42.46
2017-08-25T11:24:15.167Z,43.94
2017-08-25T11:25:09.120Z,40.20
2017-08-25T11:25:57.243Z,40.85
2017-08-25T11:26:52.333Z,39.20
2017-08-25T11:27:41.381Z,39.56
2017-08-25T11:28:35.436Z,40.33
2017-08-25T11:29:23.503Z,37.74
2017-08-25T11:30:17.614Z,37.08
2017-08-25T11:31:06.818Z,36.74
2017-08-25T11:32:00.848Z,38.39
2017-08-25T11:32:49.978Z,37.60
2017-08-25T11:33:43.996Z,37.74
2017-08-25T11:34:38.077Z,41.19
2017-08-25T11:35:26.104Z,42.44
2017-08-25T11:36:21.276Z,39.37
2017-08-25T11:37:15.356Z,41.32
2017-08-25T11:38:09.386Z,38.92
2017-08-25T11:38:57.421Z,40.00
2017-08-25T11:39:46.616Z,42.00
2017-08-25T11:40:41.675Z,39.84
2017-08-25T11:41:30.058Z,42.01
2017-08-25T11:42:23.769Z,42.83
2017-08-25T11:43:23.793Z,41.44
2017-08-25T11:44:12.866Z,40.34
2017-08-25T11:45:00.984Z,37.37
2017-08-25T11:45:49.098Z,39.11
2017-08-25T11:46:43.181Z,37.86
2017-08-25T11:47:37.288Z,40.12
2017-08-25T11:48:31.383Z,40.66
2017-08-25T11:49:31.407Z,39.49
2017-08-25T11:50:32.526Z,42.42
2017-08-25T11:51:21.656Z,42.16
2017-08-25T11:52:16.158Z,39.32
2017-08-25T11:53:15.828Z,38.85
2017-08-25T11:54:15.853Z,36.74
2017-08-25T11:55:10.996Z,37.74
2017-08-25T11:56:00.008Z,36.95
2017-08-25T11:56:49.068Z,38.33
2017-08-25T11:57:44.153Z,39.65